sensor_id;sensor_type;location;lat;lon;timestamp;temperature;humidity
37158;DHT22;23050;51.776;22.638;2022-12-07T16:15:56;1.40;99.90
37158;DHT22;23050;51.776;22.638;2022-12-07T16:18:22;1.40;99.90
37158;DHT22;23050;51.776;22.638;2022-12-07T16:20:48;1.30;99.90
37158;DHT22;23050;51.776;22.638;2022-12-07T16:23:14;1.30;99.90
37158;DHT22;23050;51.776;22.638;2022-12-07T16:25:40;1.40;99.90
37158;DHT22;23050;51.776;22.638;2022-12-07T16:28:06;1.40;99.90
37158;DHT22;23050;51.776;22.638;2022-12-07T16:30:33;1.40;99.90
37158;DHT22;23050;51.776;22.638;2022-12-07T16:32:58;1.40;99.90
37158;DHT22;23050;51.776;22.638;2022-12-07T16:35:24;1.50;99.90
37158;DHT22;23050;51.776;22.638;2022-12-07T16:37:50;1.50;99.90
37158;DHT22;23050;51.776;22.638;2022-12-07T16:40:15;1.50;99.90
37158;DHT22;23050;51.776;22.638;2022-12-07T16:42:41;1.50;99.90
37158;DHT22;23050;51.776;22.638;2022-12-07T16:45:06;1.50;99.90
37158;DHT22;23050;51.776;22.638;2022-12-07T16:47:32;1.50;99.90
37158;DHT22;23050;51.776;22.638;2022-12-07T16:49:58;1.50;99.90
37158;DHT22;23050;51.776;22.638;2022-12-07T16:52:23;1.50;99.90
37158;DHT22;23050;51.776;22.638;2022-12-07T16:54:49;1.50;99.90
37158;DHT22;23050;51.776;22.638;2022-12-07T16:57:16;1.50;99.90
37158;DHT22;23050;51.776;22.638;2022-12-07T16:59:41;1.60;99.90
37158;DHT22;23050;51.776;22.638;2022-12-07T17:02:10;1.40;99.90
37158;DHT22;23050;51.776;22.638;2022-12-07T17:04:36;1.40;99.90
37158;DHT22;23050;51.776;22.638;2022-12-07T17:07:08;1.40;99.90
37158;DHT22;23050;51.776;22.638;2022-12-07T17:09:34;1.40;99.90
37158;DHT22;23050;51.776;22.638;2022-12-07T17:12:00;1.40;99.90
37158;DHT22;23050;51.776;22.638;2022-12-07T17:14:26;1.40;99.90
37158;DHT22;23050;51.776;22.638;2022-12-07T17:17:10;1.40;99.90
37158;DHT22;23050;51.776;22.638;2022-12-07T17:19:36;1.50;99.90
37158;DHT22;23050;51.776;22.638;2022-12-07T17:22:01;1.40;99.90
37158;DHT22;23050;51.776;22.638;2022-12-07T17:24:27;1.40;99.90
37158;DHT22;23050;51.776;22.638;2022-12-07T17:26:53;1.40;99.90
37158;DHT22;23050;51.776;22.638;2022-12-07T17:29:19;1.40;99.90
37158;DHT22;23050;51.776;22.638;2022-12-07T17:31:46;1.40;99.90
37158;DHT22;23050;51.776;22.638;2022-12-07T17:34:13;1.40;99.90
37158;DHT22;23050;51.776;22.638;2022-12-07T17:36:40;1.50;99.90
37158;DHT22;23050;51.776;22.638;2022-12-07T17:39:10;1.50;99.90
37158;DHT22;23050;51.776;22.638;2022-12-07T17:41:37;1.50;99.90
37158;DHT22;23050;51.776;22.638;2022-12-07T17:44:22;1.50;99.90
37158;DHT22;23050;51.776;22.638;2022-12-07T17:46:50;1.60;99.90
37158;DHT22;23050;51.776;22.638;2022-12-07T17:49:20;1.50;99.90
37158;DHT22;23050;51.776;22.638;2022-12-07T17:51:46;1.60;99.90
37158;DHT22;23050;51.776;22.638;2022-12-07T17:54:30;1.60;99.90
37158;DHT22;23050;51.776;22.638;2022-12-07T17:56:55;1.60;99.90
37158;DHT22;23050;51.776;22.638;2022-12-07T17:59:21;1.60;99.90
37158;DHT22;23050;51.776;22.638;2022-12-07T18:01:47;1.60;99.90
37158;DHT22;23050;51.776;22.638;2022-12-07T18:04:12;1.80;99.90
37158;DHT22;23050;51.776;22.638;2022-12-07T18:06:38;1.70;99.90
37158;DHT22;23050;51.776;22.638;2022-12-07T18:09:05;1.70;99.90
37158;DHT22;23050;51.776;22.638;2022-12-07T18:11:31;1.70;99.90
37158;DHT22;23050;51.776;22.638;2022-12-07T18:13:57;1.70;99.90
37158;DHT22;23050;51.776;22.638;2022-12-07T18:16:26;1.70;99.90
37158;DHT22;23050;51.776;22.638;2022-12-07T18:18:52;1.70;99.90
37158;DHT22;23050;51.776;22.638;2022-12-07T18:21:24;1.70;99.90
37158;DHT22;23050;51.776;22.638;2022-12-07T18:23:52;1.70;99.90
37158;DHT22;23050;51.776;22.638;2022-12-07T18:26:18;1.70;99.90
37158;DHT22;23050;51.776;22.638;2022-12-07T18:28:44;1.70;99.90
37158;DHT22;23050;51.776;22.638;2022-12-07T18:31:10;1.70;99.90
37158;DHT22;23050;51.776;22.638;2022-12-07T18:33:38;1.80;99.90
37158;DHT22;23050;51.776;22.638;2022-12-07T18:36:04;1.80;99.90
37158;DHT22;23050;51.776;22.638;2022-12-07T18:38:30;1.80;99.90
37158;DHT22;23050;51.776;22.638;2022-12-07T18:40:56;1.80;99.90
37158;DHT22;23050;51.776;22.638;2022-12-07T18:43:22;1.80;99.90
37158;DHT22;23050;51.776;22.638;2022-12-07T18:45:50;1.80;99.90
37158;DHT22;23050;51.776;22.638;2022-12-07T18:48:17;1.80;99.90
37158;DHT22;23050;51.776;22.638;2022-12-07T18:50:44;1.80;99.90
37158;DHT22;23050;51.776;22.638;2022-12-07T18:53:10;1.70;99.90
37158;DHT22;23050;51.776;22.638;2022-12-07T18:55:36;1.70;99.90
37158;DHT22;23050;51.776;22.638;2022-12-07T18:58:02;1.70;99.90
37158;DHT22;23050;51.776;22.638;2022-12-07T19:00:29;1.60;99.90
37158;DHT22;23050;51.776;22.638;2022-12-07T19:02:57;1.60;99.90
37158;DHT22;23050;51.776;22.638;2022-12-07T19:05:23;1.50;99.90
37158;DHT22;23050;51.776;22.638;2022-12-07T19:07:50;1.40;99.90
37158;DHT22;23050;51.776;22.638;2022-12-07T19:10:16;1.40;99.90
37158;DHT22;23050;51.776;22.638;2022-12-07T19:12:42;1.40;99.90
37158;DHT22;23050;51.776;22.638;2022-12-07T19:15:09;1.30;99.90
37158;DHT22;23050;51.776;22.638;2022-12-07T19:17:36;1.30;99.90
37158;DHT22;23050;51.776;22.638;2022-12-07T19:20:04;1.30;99.90
37158;DHT22;23050;51.776;22.638;2022-12-07T19:22:30;1.30;99.90
37158;DHT22;23050;51.776;22.638;2022-12-07T19:24:56;1.30;99.90
37158;DHT22;23050;51.776;22.638;2022-12-07T19:27:22;1.30;99.90
37158;DHT22;23050;51.776;22.638;2022-12-07T19:29:48;1.40;99.90
37158;DHT22;23050;51.776;22.638;2022-12-07T19:32:15;1.40;99.90
37158;DHT22;23050;51.776;22.638;2022-12-07T19:34:43;1.30;99.90
37158;DHT22;23050;51.776;22.638;2022-12-07T19:37:10;1.30;99.90
37158;DHT22;23050;51.776;22.638;2022-12-07T19:39:37;1.30;99.90
37158;DHT22;23050;51.776;22.638;2022-12-07T19:42:03;1.30;99.90
37158;DHT22;23050;51.776;22.638;2022-12-07T19:44:29;1.30;99.90
37158;DHT22;23050;51.776;22.638;2022-12-07T19:46:58;1.30;99.90
37158;DHT22;23050;51.776;22.638;2022-12-07T19:49:25;1.30;99.90
37158;DHT22;23050;51.776;22.638;2022-12-07T19:51:54;1.30;99.90
37158;DHT22;23050;51.776;22.638;2022-12-07T19:54:22;1.30;99.90
37158;DHT22;23050;51.776;22.638;2022-12-07T19:56:49;1.40;99.90
37158;DHT22;23050;51.776;22.638;2022-12-07T19:59:16;1.40;99.90
37158;DHT22;23050;51.776;22.638;2022-12-07T20:01:43;1.40;99.90
37158;DHT22;23050;51.776;22.638;2022-12-07T20:04:14;1.40;99.90
37158;DHT22;23050;51.776;22.638;2022-12-07T20:06:51;1.40;99.90
37158;DHT22;23050;51.776;22.638;2022-12-07T20:09:18;1.40;99.90
37158;DHT22;23050;51.776;22.638;2022-12-07T20:11:44;1.40;99.90
37158;DHT22;23050;51.776;22.638;2022-12-07T20:14:29;1.50;99.90
37158;DHT22;23050;51.776;22.638;2022-12-07T20:16:56;1.50;99.90
37158;DHT22;23050;51.776;22.638;2022-12-07T20:19:22;1.60;99.90
37158;DHT22;23050;51.776;22.638;2022-12-07T20:21:49;1.60;99.90
37158;DHT22;23050;51.776;22.638;2022-12-07T20:24:18;1.60;99.90
37158;DHT22;23050;51.776;22.638;2022-12-07T20:26:46;1.60;99.90
37158;DHT22;23050;51.776;22.638;2022-12-07T20:29:13;1.60;99.90
37158;DHT22;23050;51.776;22.638;2022-12-07T20:31:40;1.60;99.90
37158;DHT22;23050;51.776;22.638;2022-12-07T20:34:06;1.70;99.90
37158;DHT22;23050;51.776;22.638;2022-12-07T20:36:32;1.70;99.90
37158;DHT22;23050;51.776;22.638;2022-12-07T20:38:59;1.70;99.90
37158;DHT22;23050;51.776;22.638;2022-12-07T20:41:26;1.70;99.90
37158;DHT22;23050;51.776;22.638;2022-12-07T20:44:11;1.70;99.90
37158;DHT22;23050;51.776;22.638;2022-12-07T20:46:37;1.70;99.90
37158;DHT22;23050;51.776;22.638;2022-12-07T20:49:03;1.70;99.90
37158;DHT22;23050;51.776;22.638;2022-12-07T20:51:29;1.70;99.90
37158;DHT22;23050;51.776;22.638;2022-12-07T20:53:55;1.70;99.90
37158;DHT22;23050;51.776;22.638;2022-12-07T20:56:24;1.80;99.90
37158;DHT22;23050;51.776;22.638;2022-12-07T20:58:52;1.70;99.90
37158;DHT22;23050;51.776;22.638;2022-12-07T21:01:18;1.70;99.90
37158;DHT22;23050;51.776;22.638;2022-12-07T21:03:43;1.70;99.90
37158;DHT22;23050;51.776;22.638;2022-12-07T21:06:16;1.70;99.90
37158;DHT22;23050;51.776;22.638;2022-12-07T21:08:47;1.70;99.90
37158;DHT22;23050;51.776;22.638;2022-12-07T21:11:14;1.70;99.90
37158;DHT22;23050;51.776;22.638;2022-12-07T21:13:41;1.70;99.90
37158;DHT22;23050;51.776;22.638;2022-12-07T21:16:12;1.70;99.90
37158;DHT22;23050;51.776;22.638;2022-12-07T21:18:38;1.70;99.90
37158;DHT22;23050;51.776;22.638;2022-12-07T21:21:08;1.60;99.90
37158;DHT22;23050;51.776;22.638;2022-12-07T21:23:34;1.70;99.90
37158;DHT22;23050;51.776;22.638;2022-12-07T21:26:00;1.70;99.90
37158;DHT22;23050;51.776;22.638;2022-12-07T21:28:26;1.70;99.90
37158;DHT22;23050;51.776;22.638;2022-12-07T21:30:56;1.70;99.90
37158;DHT22;23050;51.776;22.638;2022-12-07T21:33:22;1.70;99.90
37158;DHT22;23050;51.776;22.638;2022-12-07T21:35:48;1.70;99.90
37158;DHT22;23050;51.776;22.638;2022-12-07T21:38:14;1.70;99.90
37158;DHT22;23050;51.776;22.638;2022-12-07T21:40:39;1.60;99.90
37158;DHT22;23050;51.776;22.638;2022-12-07T21:43:05;1.70;99.90
37158;DHT22;23050;51.776;22.638;2022-12-07T21:45:33;1.60;99.90
37158;DHT22;23050;51.776;22.638;2022-12-07T21:47:59;1.60;99.90
37158;DHT22;23050;51.776;22.638;2022-12-07T21:50:25;1.70;99.90
37158;DHT22;23050;51.776;22.638;2022-12-07T21:52:50;1.70;99.90
37158;DHT22;23050;51.776;22.638;2022-12-07T21:55:16;1.70;99.90
37158;DHT22;23050;51.776;22.638;2022-12-07T21:57:42;1.70;99.90
37158;DHT22;23050;51.776;22.638;2022-12-07T22:00:08;1.70;99.90
37158;DHT22;23050;51.776;22.638;2022-12-07T22:02:34;1.70;99.90
37158;DHT22;23050;51.776;22.638;2022-12-07T22:04:59;1.60;99.90
37158;DHT22;23050;51.776;22.638;2022-12-07T22:07:25;1.50;99.90
37158;DHT22;23050;51.776;22.638;2022-12-07T22:09:50;1.60;99.90
37158;DHT22;23050;51.776;22.638;2022-12-07T22:12:16;1.40;99.90
37158;DHT22;23050;51.776;22.638;2022-12-07T22:14:41;1.40;99.90
37158;DHT22;23050;51.776;22.638;2022-12-07T22:17:27;1.30;99.90
37158;DHT22;23050;51.776;22.638;2022-12-07T22:19:52;1.30;99.90
37158;DHT22;23050;51.776;22.638;2022-12-07T22:22:18;1.20;99.90
37158;DHT22;23050;51.776;22.638;2022-12-07T22:24:44;1.10;99.90
37158;DHT22;23050;51.776;22.638;2022-12-07T22:27:09;1.00;99.90
37158;DHT22;23050;51.776;22.638;2022-12-07T22:29:35;1.00;99.90
37158;DHT22;23050;51.776;22.638;2022-12-07T22:32:01;1.00;99.90
37158;DHT22;23050;51.776;22.638;2022-12-07T22:34:26;1.00;99.90
37158;DHT22;23050;51.776;22.638;2022-12-07T22:36:52;1.00;99.90
37158;DHT22;23050;51.776;22.638;2022-12-07T22:39:17;0.90;99.90
37158;DHT22;23050;51.776;22.638;2022-12-07T22:41:43;0.90;99.90
37158;DHT22;23050;51.776;22.638;2022-12-07T22:44:09;0.90;99.90
37158;DHT22;23050;51.776;22.638;2022-12-07T22:46:35;0.80;99.90
37158;DHT22;23050;51.776;22.638;2022-12-07T22:49:02;0.80;99.90
37158;DHT22;23050;51.776;22.638;2022-12-07T22:51:30;0.80;99.90
37158;DHT22;23050;51.776;22.638;2022-12-07T22:54:00;0.70;99.90
37158;DHT22;23050;51.776;22.638;2022-12-07T22:56:27;0.60;99.90
37158;DHT22;23050;51.776;22.638;2022-12-07T22:58:54;0.60;99.90
37158;DHT22;23050;51.776;22.638;2022-12-07T23:01:20;0.60;99.90
37158;DHT22;23050;51.776;22.638;2022-12-07T23:03:46;0.60;99.90
37158;DHT22;23050;51.776;22.638;2022-12-07T23:06:22;0.50;99.90
37158;DHT22;23050;51.776;22.638;2022-12-07T23:08:48;0.50;99.90
37158;DHT22;23050;51.776;22.638;2022-12-07T23:11:17;0.50;99.90
37158;DHT22;23050;51.776;22.638;2022-12-07T23:14:03;0.50;99.90
37158;DHT22;23050;51.776;22.638;2022-12-07T23:16:29;0.60;99.90
37158;DHT22;23050;51.776;22.638;2022-12-07T23:18:55;0.50;99.90
37158;DHT22;23050;51.776;22.638;2022-12-07T23:21:20;0.50;99.90
37158;DHT22;23050;51.776;22.638;2022-12-07T23:23:46;0.50;99.90
37158;DHT22;23050;51.776;22.638;2022-12-07T23:26:12;0.50;99.90
37158;DHT22;23050;51.776;22.638;2022-12-07T23:28:37;0.50;99.90
37158;DHT22;23050;51.776;22.638;2022-12-07T23:31:06;0.40;99.90
37158;DHT22;23050;51.776;22.638;2022-12-07T23:33:32;0.40;99.90
37158;DHT22;23050;51.776;22.638;2022-12-07T23:38:38;0.40;99.90
37158;DHT22;23050;51.776;22.638;2022-12-07T23:41:09;0.40;99.90
37158;DHT22;23050;51.776;22.638;2022-12-07T23:43:35;0.30;99.90
37158;DHT22;23050;51.776;22.638;2022-12-07T23:46:02;0.30;99.90
37158;DHT22;23050;51.776;22.638;2022-12-07T23:48:28;0.30;99.90
37158;DHT22;23050;51.776;22.638;2022-12-07T23:50:58;0.30;99.90
37158;DHT22;23050;51.776;22.638;2022-12-07T23:53:24;0.30;99.90
37158;DHT22;23050;51.776;22.638;2022-12-07T23:55:52;0.30;99.90
37158;DHT22;23050;51.776;22.638;2022-12-07T23:58:18;0.30;99.90
